Time;durP1;ratioP1;P1;durP2;ratioP2;P2;SDS_P1;SDS_P2;PMS_P1;PMS_P2;Temp;Humidity;BMP_temperature;BMP_pressure;BME280_temperature;BME280_humidity;BME280_pressure;Samples;Min_cycle;Max_cycle;Signal;HPM_P1;HPM_P2
2021/12/26 00:00:30;;;;;;;8.55;4.65;;;2.20;99.90;;;;;;5083908;28;20034;-76
2021/12/26 00:02:57;;;;;;;7.93;4.80;;;2.10;99.90;;;;;;5082345;28;20085;-75
2021/12/26 00:05:23;;;;;;;7.82;4.32;;;2.20;99.90;;;;;;5089952;28;20029;-76
2021/12/26 00:07:49;;;;;;;6.20;3.97;;;2.10;99.90;;;;;;5090830;28;20020;-76
2021/12/26 00:10:20;;;;;;;6.78;4.22;;;2.10;99.90;;;;;;5083150;28;20060;-75
2021/12/26 00:12:47;;;;;;;12.05;5.25;;;2.20;99.90;;;;;;5084613;28;20053;-76
2021/12/26 00:15:13;;;;;;;6.47;4.15;;;2.00;99.90;;;;;;5086617;28;20055;-76
2021/12/26 00:17:39;;;;;;;8.13;5.07;;;2.00;99.90;;;;;;5089911;28;20032;-76
2021/12/26 00:20:08;;;;;;;8.20;4.10;;;2.00;99.90;;;;;;5088935;28;20032;-76
2021/12/26 00:22:34;;;;;;;6.80;4.43;;;1.90;99.90;;;;;;5080104;28;20456;-75
2021/12/26 00:25:01;;;;;;;6.50;3.85;;;2.00;99.90;;;;;;5085753;28;20096;-76
2021/12/26 00:27:27;;;;;;;7.32;4.15;;;1.90;99.90;;;;;;5086071;28;20032;-76
2021/12/26 00:29:55;;;;;;;7.35;4.55;;;2.00;99.90;;;;;;5089822;28;20488;-76
2021/12/26 00:32:21;;;;;;;9.55;4.75;;;2.00;99.90;;;;;;5086882;28;20024;-76
2021/12/26 00:34:50;;;;;;;8.48;5.03;;;1.90;99.90;;;;;;5085800;28;20047;-76
2021/12/26 00:37:17;;;;;;;6.55;5.05;;;1.90;99.90;;;;;;5083266;28;20028;-76
2021/12/26 00:39:44;;;;;;;10.50;5.63;;;1.80;99.90;;;;;;5093504;28;20142;-76
2021/12/26 00:42:10;;;;;;;7.43;4.60;;;1.90;99.90;;;;;;5090958;28;20464;-76
2021/12/26 00:44:40;;;;;;;8.88;5.30;;;2.00;99.90;;;;;;5088507;28;20078;-76
2021/12/26 00:47:08;;;;;;;7.38;4.95;;;2.00;99.90;;;;;;5088679;28;20032;-76
2021/12/26 00:49:34;;;;;;;9.40;5.13;;;2.00;99.90;;;;;;5085477;28;20023;-76
2021/12/26 00:52:00;;;;;;;7.43;4.80;;;2.00;99.90;;;;;;5086882;28;20032;-76
2021/12/26 00:54:26;;;;;;;8.65;5.15;;;2.00;99.90;;;;;;5088906;28;20062;-75
2021/12/26 00:56:52;;;;;;;6.35;4.68;;;2.00;99.90;;;;;;5085644;28;20534;-76
2021/12/26 00:59:17;;;;;;;7.85;4.55;;;2.00;99.90;;;;;;5083779;28;20060;-76
2021/12/26 01:01:43;;;;;;;7.63;4.93;;;2.00;99.90;;;;;;5088560;28;20024;-75
2021/12/26 01:04:11;;;;;;;8.38;4.85;;;2.00;99.90;;;;;;5087304;28;20036;-76
2021/12/26 01:06:37;;;;;;;9.35;4.80;;;1.90;99.90;;;;;;5089072;28;20039;-76
2021/12/26 01:09:07;;;;;;;8.27;4.75;;;1.90;99.90;;;;;;5086447;28;20028;-75
2021/12/26 01:11:37;;;;;;;8.45;4.80;;;2.00;99.90;;;;;;5087293;28;20035;-76
2021/12/26 01:14:07;;;;;;;7.90;4.95;;;2.10;99.90;;;;;;5087041;28;20044;-75
2021/12/26 01:16:34;;;;;;;9.55;4.60;;;2.20;99.90;;;;;;5088365;28;20019;-75
2021/12/26 01:19:06;;;;;;;9.23;5.13;;;2.10;99.90;;;;;;5087853;28;20059;-75
2021/12/26 01:21:33;;;;;;;6.93;4.40;;;2.00;99.90;;;;;;5089251;28;20110;-76
2021/12/26 01:24:02;;;;;;;7.63;4.55;;;2.00;99.90;;;;;;5086066;28;20039;-76
2021/12/26 01:26:28;;;;;;;7.15;4.60;;;1.90;99.90;;;;;;5084299;28;20033;-76
2021/12/26 01:28:54;;;;;;;8.50;4.75;;;1.90;99.90;;;;;;5081951;28;20491;-76
2021/12/26 01:31:21;;;;;;;7.78;4.70;;;1.90;99.90;;;;;;5081200;28;20028;-75
2021/12/26 01:33:48;;;;;;;7.32;4.28;;;1.80;99.90;;;;;;5080202;28;20043;-75
2021/12/26 01:36:16;;;;;;;8.13;4.88;;;1.90;99.90;;;;;;5088514;28;20036;-76
2021/12/26 01:38:41;;;;;;;8.75;4.93;;;1.90;99.90;;;;;;5087129;28;20013;-76
2021/12/26 01:41:10;;;;;;;9.43;5.40;;;1.70;99.90;;;;;;5086017;28;20078;-75
2021/12/26 01:43:38;;;;;;;8.65;5.07;;;1.80;99.90;;;;;;5081474;28;20107;-75
2021/12/26 01:46:05;;;;;;;8.48;5.18;;;1.90;99.90;;;;;;5083866;28;20073;-76
2021/12/26 01:48:30;;;;;;;7.68;5.30;;;1.80;99.90;;;;;;5084816;28;20128;-76
2021/12/26 01:50:56;;;;;;;8.27;5.20;;;1.80;99.90;;;;;;5083056;28;20039;-75
2021/12/26 01:53:24;;;;;;;7.75;5.10;;;1.90;99.90;;;;;;5085076;28;20104;-76
2021/12/26 01:55:53;;;;;;;9.18;5.80;;;1.90;99.90;;;;;;5087289;28;20059;-75
2021/12/26 01:58:22;;;;;;;8.35;5.63;;;1.90;99.90;;;;;;5088375;28;20047;-76
2021/12/26 02:00:55;;;;;;;9.45;5.90;;;1.90;99.90;;;;;;5078823;28;20050;-76
2021/12/26 02:03:21;;;;;;;;;;;1.90;99.90;;;;;;5081684;28;20067;-76
2021/12/26 02:05:47;;;;;;;10.07;5.18;;;1.90;99.90;;;;;;5080723;28;19912;-76
2021/12/26 02:08:13;;;;;;;9.23;5.53;;;2.00;99.90;;;;;;5077806;28;20079;-76
2021/12/26 02:10:39;;;;;;;12.27;5.82;;;2.00;99.90;;;;;;5085072;28;20048;-76
2021/12/26 02:13:05;;;;;;;9.60;5.90;;;1.90;99.90;;;;;;5083663;28;20103;-76
2021/12/26 02:15:31;;;;;;;10.15;6.15;;;2.00;99.90;;;;;;5083718;28;20119;-76
2021/12/26 02:17:57;;;;;;;11.23;6.43;;;1.90;99.90;;;;;;5079554;28;20028;-76
2021/12/26 02:20:27;;;;;;;7.95;5.55;;;2.00;99.90;;;;;;5087083;28;20048;-76
2021/12/26 02:22:59;;;;;;;9.52;5.78;;;1.90;99.90;;;;;;5081595;28;20035;-76
2021/12/26 02:27:51;;;;;;;11.35;5.63;;;1.90;99.90;;;;;;5086279;28;20032;-75
2021/12/26 02:30:17;;;;;;;10.88;6.00;;;1.80;99.90;;;;;;5081861;28;20036;-76
2021/12/26 02:32:48;;;;;;;7.93;5.90;;;1.70;99.90;;;;;;5080498;28;20021;-76
2021/12/26 02:35:15;;;;;;;7.93;5.38;;;1.90;99.90;;;;;;5082306;28;20199;-76
2021/12/26 02:37:41;;;;;;;10.98;6.22;;;1.90;99.90;;;;;;5088020;28;20503;-76
2021/12/26 02:40:07;;;;;;;9.13;5.75;;;2.00;99.90;;;;;;5084838;28;20033;-76
2021/12/26 02:42:33;;;;;;;9.98;5.60;;;1.90;99.90;;;;;;5082135;28;20023;-76
2021/12/26 02:44:59;;;;;;;9.85;5.47;;;2.00;99.90;;;;;;5078138;28;20027;-76
2021/12/26 02:47:46;;;;;;;10.80;5.93;;;2.00;99.90;;;;;;5083030;28;20043;-76
2021/12/26 02:50:21;;;;;;;8.45;5.57;;;2.00;99.90;;;;;;5081438;28;20032;-76
2021/12/26 02:52:47;;;;;;;9.45;5.45;;;2.10;99.90;;;;;;5086775;28;20418;-76
2021/12/26 02:55:16;;;;;;;9.18;5.95;;;2.10;99.90;;;;;;5083453;28;20498;-76
2021/12/26 02:57:45;;;;;;;8.63;5.93;;;2.00;99.90;;;;;;5082194;28;20086;-76
2021/12/26 03:00:16;;;;;;;10.95;6.13;;;2.10;99.90;;;;;;5078405;28;20538;-76
2021/12/26 03:02:44;;;;;;;15.20;6.60;;;2.10;99.90;;;;;;5079956;28;20020;-75
2021/12/26 03:05:11;;;;;;;9.50;5.82;;;2.00;99.90;;;;;;5079647;28;20094;-76
2021/12/26 03:07:37;;;;;;;10.10;6.45;;;2.00;99.90;;;;;;5079761;28;20145;-76
2021/12/26 03:10:05;;;;;;;9.35;5.72;;;2.10;99.90;;;;;;5076636;28;20115;-76
2021/12/26 03:12:33;;;;;;;10.13;6.53;;;2.10;99.90;;;;;;5078694;28;20039;-76
2021/12/26 03:14:59;;;;;;;8.27;6.50;;;2.00;99.90;;;;;;5076810;28;20388;-75
2021/12/26 03:17:25;;;;;;;10.30;5.85;;;2.00;99.90;;;;;;5083349;28;20385;-76
2021/12/26 03:19:51;;;;;;;10.77;5.85;;;2.00;99.90;;;;;;5078039;28;20033;-75
2021/12/26 03:22:18;;;;;;;9.80;6.25;;;2.00;99.90;;;;;;5082606;28;20024;-76
2021/12/26 03:24:44;;;;;;;9.63;6.35;;;2.00;99.90;;;;;;5081369;28;20021;-76
2021/12/26 03:27:12;;;;;;;15.05;6.40;;;2.00;99.90;;;;;;5079711;28;20024;-76
2021/12/26 03:29:37;;;;;;;10.43;6.32;;;2.00;99.90;;;;;;5077206;28;20024;-77
2021/12/26 03:32:04;;;;;;;9.90;6.28;;;2.00;99.90;;;;;;5079090;28;20368;-77
2021/12/26 03:34:29;;;;;;;11.23;6.07;;;2.00;99.90;;;;;;5077685;28;20114;-77
2021/12/26 03:36:56;;;;;;;12.77;7.20;;;2.00;99.90;;;;;;5081284;28;20087;-76
2021/12/26 03:39:23;;;;;;;12.15;7.32;;;2.10;99.90;;;;;;5084917;28;20024;-76
2021/12/26 03:41:49;;;;;;;10.40;6.00;;;2.00;99.90;;;;;;5082525;28;21475;-77
2021/12/26 03:44:15;;;;;;;11.90;7.25;;;2.00;99.90;;;;;;5083583;28;20388;-76
2021/12/26 03:46:41;;;;;;;11.73;6.78;;;2.10;99.90;;;;;;5087680;28;20027;-77
2021/12/26 03:49:06;;;;;;;11.13;7.05;;;2.00;99.90;;;;;;5084781;28;20024;-77
2021/12/26 03:51:34;;;;;;;11.48;7.20;;;2.00;99.90;;;;;;5084480;28;20476;-78
2021/12/26 03:54:05;;;;;;;12.27;6.75;;;2.00;99.90;;;;;;5085262;28;20036;-77
2021/12/26 03:56:32;;;;;;;11.95;6.90;;;2.00;99.90;;;;;;5085972;28;20024;-78
2021/12/26 03:58:58;;;;;;;11.50;6.82;;;1.90;99.90;;;;;;5081344;28;20040;-78
2021/12/26 04:01:25;;;;;;;11.63;6.35;;;1.90;99.90;;;;;;5085838;28;20416;-78
2021/12/26 04:03:51;;;;;;;13.50;6.68;;;1.80;99.90;;;;;;5083662;28;20042;-77
2021/12/26 04:06:17;;;;;;;12.98;6.88;;;1.90;99.90;;;;;;5081846;28;20017;-77
2021/12/26 04:08:43;;;;;;;12.35;6.97;;;1.90;99.90;;;;;;5083112;28;20085;-78
2021/12/26 04:11:08;;;;;;;11.25;6.60;;;1.90;99.90;;;;;;5079826;28;20484;-77
2021/12/26 04:13:35;;;;;;;14.00;7.20;;;1.90;99.90;;;;;;5081333;28;20028;-77
2021/12/26 04:16:01;;;;;;;13.32;7.45;;;1.80;99.90;;;;;;5083278;28;20476;-78
2021/12/26 04:18:27;;;;;;;11.20;6.57;;;1.80;99.90;;;;;;5083856;28;21006;-77
2021/12/26 04:20:53;;;;;;;15.10;6.95;;;1.90;99.90;;;;;;5082612;28;20040;-77
2021/12/26 04:23:19;;;;;;;13.25;6.88;;;1.90;99.90;;;;;;5080247;28;20051;-78
2021/12/26 04:25:45;;;;;;;12.18;7.35;;;1.90;99.90;;;;;;5081424;28;20100;-77
2021/12/26 04:28:11;;;;;;;16.08;7.75;;;1.70;99.90;;;;;;5082314;28;20031;-78
2021/12/26 04:30:38;;;;;;;11.75;6.88;;;1.70;99.90;;;;;;5082872;28;20464;-78
2021/12/26 04:33:04;;;;;;;15.15;7.47;;;1.80;99.90;;;;;;5082042;28;20052;-78
2021/12/26 04:35:31;;;;;;;17.73;8.10;;;1.80;99.90;;;;;;5082316;28;20035;-75
2021/12/26 04:37:56;;;;;;;15.75;7.75;;;1.80;99.90;;;;;;5081396;28;20016;-78
2021/12/26 04:40:23;;;;;;;13.88;7.43;;;1.80;99.90;;;;;;5084331;28;20040;-76
2021/12/26 04:42:50;;;;;;;11.48;7.35;;;1.80;99.90;;;;;;5084486;28;20017;-78
2021/12/26 04:45:16;;;;;;;13.25;7.38;;;1.80;99.90;;;;;;5082466;28;20038;-78
2021/12/26 04:47:44;;;;;;;12.90;6.43;;;1.80;99.90;;;;;;5085965;28;20031;-78
2021/12/26 04:50:13;;;;;;;11.07;6.75;;;1.80;99.90;;;;;;5085673;28;20058;-78
2021/12/26 04:52:42;;;;;;;14.70;8.20;;;1.80;99.90;;;;;;5086560;28;20461;-78
2021/12/26 04:55:09;;;;;;;12.73;7.40;;;1.80;99.90;;;;;;5083859;28;20078;-78
2021/12/26 04:57:35;;;;;;;14.13;7.43;;;1.80;99.90;;;;;;5083972;28;20067;-78
2021/12/26 05:00:03;;;;;;;16.25;8.38;;;1.80;99.90;;;;;;5083638;28;20902;-78
2021/12/26 05:02:30;;;;;;;15.70;7.75;;;1.70;99.90;;;;;;5085260;28;20035;-78
2021/12/26 05:04:55;;;;;;;10.43;6.50;;;1.60;99.90;;;;;;5081178;28;20074;-78
2021/12/26 05:07:21;;;;;;;13.07;7.20;;;1.50;99.90;;;;;;5077675;28;20574;-78
2021/12/26 05:09:48;;;;;;;15.80;7.05;;;1.50;99.90;;;;;;5089944;28;20024;-77
2021/12/26 05:12:14;;;;;;;13.40;7.93;;;1.50;99.90;;;;;;5085057;28;20020;-78
2021/12/26 05:14:39;;;;;;;15.30;7.13;;;1.50;99.90;;;;;;5076359;28;20048;-78
2021/12/26 05:17:05;;;;;;;11.15;6.57;;;1.50;99.90;;;;;;5079231;28;21373;-77
2021/12/26 05:19:31;;;;;;;12.25;6.85;;;1.50;99.90;;;;;;5082871;28;20469;-77
2021/12/26 05:21:56;;;;;;;15.63;7.90;;;1.40;99.90;;;;;;5081411;28;20024;-78
2021/12/26 05:24:22;;;;;;;12.95;7.25;;;1.50;99.90;;;;;;5078790;28;20025;-78
2021/12/26 05:26:47;;;;;;;12.00;6.45;;;1.60;99.90;;;;;;5085580;28;20066;-78
2021/12/26 05:29:13;;;;;;;12.82;7.05;;;1.40;99.90;;;;;;5084726;28;20088;-78
2021/12/26 05:31:39;;;;;;;11.20;6.68;;;1.40;99.90;;;;;;5088473;28;20399;-78
2021/12/26 05:34:05;;;;;;;13.25;7.07;;;1.30;99.90;;;;;;5080763;28;20036;-77
2021/12/26 05:36:30;;;;;;;10.77;6.90;;;1.40;99.90;;;;;;5080899;28;20033;-77
2021/12/26 05:38:56;;;;;;;10.68;6.63;;;1.40;99.90;;;;;;5083615;28;20384;-76
2021/12/26 05:41:22;;;;;;;18.90;7.55;;;1.20;99.90;;;;;;5079904;28;20020;-77
2021/12/26 05:43:48;;;;;;;11.65;6.88;;;1.30;99.90;;;;;;5082511;28;20024;-78
2021/12/26 05:46:13;;;;;;;13.32;7.13;;;1.30;99.90;;;;;;5080167;28;20073;-77
2021/12/26 05:48:39;;;;;;;14.52;6.32;;;1.20;99.90;;;;;;5080275;28;20446;-77
2021/12/26 05:51:05;;;;;;;10.57;6.20;;;1.20;99.90;;;;;;5081930;28;20051;-79
2021/12/26 05:53:30;;;;;;;10.00;6.35;;;1.10;99.90;;;;;;5082750;28;20066;-78
2021/12/26 05:55:56;;;;;;;15.52;7.25;;;1.10;99.90;;;;;;5091672;28;20032;-77
2021/12/26 05:58:22;;;;;;;14.57;7.10;;;1.20;99.90;;;;;;5080995;28;20024;-78
2021/12/26 06:00:47;;;;;;;13.32;7.32;;;1.20;99.90;;;;;;5079940;28;20484;-77
2021/12/26 06:03:13;;;;;;;13.60;7.05;;;1.20;99.90;;;;;;5083210;28;20111;-78
2021/12/26 06:05:40;;;;;;;12.43;6.72;;;1.30;99.90;;;;;;5091888;28;20023;-78
2021/12/26 06:08:05;;;;;;;13.45;6.88;;;1.40;99.90;;;;;;5081978;28;20028;-78
2021/12/26 06:10:31;;;;;;;15.55;7.20;;;1.40;99.90;;;;;;5082042;28;20035;-78
2021/12/26 06:12:57;;;;;;;11.77;7.40;;;1.40;99.90;;;;;;5079804;28;20032;-77
2021/12/26 06:15:22;;;;;;;12.20;6.90;;;1.50;99.90;;;;;;5084526;28;20480;-78
2021/12/26 06:17:48;;;;;;;14.93;7.05;;;1.50;99.90;;;;;;5081257;28;20029;-77
2021/12/26 06:20:14;;;;;;;12.63;7.38;;;1.40;99.90;;;;;;5080110;28;20032;-77
2021/12/26 06:22:44;;;;;;;11.20;6.57;;;1.40;99.90;;;;;;5087708;28;20024;-78
2021/12/26 06:25:13;;;;;;;15.48;7.38;;;1.50;99.90;;;;;;5084752;28;20028;-77
2021/12/26 06:27:38;;;;;;;12.40;7.18;;;1.60;99.90;;;;;;5086223;28;20031;-77
2021/12/26 06:30:06;;;;;;;14.73;7.18;;;1.40;99.90;;;;;;5081667;28;20431;-78
2021/12/26 06:32:32;;;;;;;16.45;6.90;;;1.30;99.90;;;;;;5081695;28;20102;-78
2021/12/26 06:34:58;;;;;;;15.30;8.25;;;1.40;99.90;;;;;;5079761;28;20032;-78
2021/12/26 06:37:23;;;;;;;12.68;7.18;;;1.40;99.90;;;;;;5085202;28;20039;-78
2021/12/26 06:39:49;;;;;;;15.27;6.65;;;1.30;99.90;;;;;;5085481;28;20093;-78
2021/12/26 06:42:14;;;;;;;11.43;7.38;;;1.20;99.90;;;;;;5086051;28;20103;-78
2021/12/26 06:44:40;;;;;;;16.20;7.53;;;1.20;99.90;;;;;;5091865;28;20492;-77
2021/12/26 06:47:07;;;;;;;13.68;6.95;;;1.20;99.90;;;;;;5075740;28;20043;-78
2021/12/26 06:49:32;;;;;;;16.23;7.82;;;1.20;99.90;;;;;;5083067;28;20104;-78
2021/12/26 06:51:58;;;;;;;14.82;7.43;;;1.30;99.90;;;;;;5079589;28;20104;-77
2021/12/26 06:54:24;;;;;;;11.77;7.13;;;1.30;99.90;;;;;;5078633;28;20119;-78
2021/12/26 06:56:50;;;;;;;15.43;7.28;;;1.30;99.90;;;;;;5084469;28;20066;-78
2021/12/26 06:59:16;;;;;;;14.05;8.07;;;1.40;99.90;;;;;;5077383;28;20031;-78
2021/12/26 07:01:42;;;;;;;13.55;7.20;;;1.50;99.90;;;;;;5080661;28;20017;-77
2021/12/26 07:04:08;;;;;;;12.35;7.15;;;1.60;99.90;;;;;;5080413;28;20054;-78
2021/12/26 07:06:33;;;;;;;14.30;8.05;;;1.60;99.90;;;;;;5083396;28;20102;-78
2021/12/26 07:08:59;;;;;;;15.57;7.88;;;1.40;99.90;;;;;;5084465;28;20036;-77
2021/12/26 07:11:25;;;;;;;16.08;8.02;;;1.40;99.90;;;;;;5083433;28;20032;-78
2021/12/26 07:13:51;;;;;;;13.38;7.32;;;1.60;99.90;;;;;;5091603;28;20088;-78
2021/12/26 07:16:16;;;;;;;10.57;6.72;;;1.70;99.90;;;;;;5085746;28;20395;-78
2021/12/26 07:18:43;;;;;;;15.02;7.70;;;1.60;99.90;;;;;;5084470;28;20035;-78
2021/12/26 07:21:09;;;;;;;12.57;7.32;;;1.60;99.90;;;;;;5086375;28;20024;-78
2021/12/26 07:23:34;;;;;;;20.50;8.57;;;1.70;99.90;;;;;;5079543;28;20020;-78
2021/12/26 07:26:00;;;;;;;13.73;7.95;;;1.80;99.90;;;;;;5089954;28;20476;-77
2021/12/26 07:28:26;;;;;;;16.15;8.77;;;1.70;99.90;;;;;;5080459;28;20031;-77
2021/12/26 07:30:51;;;;;;;15.80;8.23;;;1.90;99.90;;;;;;5076412;28;20560;-77
2021/12/26 07:33:17;;;;;;;14.65;8.15;;;1.80;99.90;;;;;;5082391;28;20357;-78
2021/12/26 07:35:43;;;;;;;10.88;7.38;;;1.80;99.90;;;;;;5081098;28;20119;-77
2021/12/26 07:38:08;;;;;;;14.88;8.50;;;1.80;99.90;;;;;;5085160;28;20028;-77
2021/12/26 07:40:34;;;;;;;16.55;8.50;;;1.90;99.90;;;;;;5087203;28;20146;-77
2021/12/26 07:43:00;;;;;;;14.70;8.35;;;1.80;99.90;;;;;;5076201;28;20024;-77
2021/12/26 07:45:25;;;;;;;18.83;9.23;;;1.90;99.90;;;;;;5082650;28;20040;-78
2021/12/26 07:47:51;;;;;;;14.02;8.23;;;1.90;99.90;;;;;;5085115;28;20086;-78
2021/12/26 07:50:17;;;;;;;18.35;8.70;;;1.90;99.90;;;;;;5081961;28;20031;-77
2021/12/26 07:52:45;;;;;;;17.90;8.55;;;2.00;99.90;;;;;;5078219;28;20028;-78
2021/12/26 07:55:13;;;;;;;16.65;8.18;;;2.00;99.90;;;;;;5079356;28;20480;-77
2021/12/26 07:57:39;;;;;;;17.63;8.32;;;1.90;99.90;;;;;;5081177;28;20552;-77
2021/12/26 08:00:07;;;;;;;16.08;8.32;;;2.00;99.90;;;;;;5079492;28;20388;-78
2021/12/26 08:02:33;;;;;;;13.05;8.60;;;2.00;99.90;;;;;;5084379;28;20429;-78
2021/12/26 08:04:59;;;;;;;14.30;8.80;;;1.90;99.90;;;;;;5088065;28;20071;-78
2021/12/26 08:07:24;;;;;;;16.00;8.80;;;2.00;99.90;;;;;;5075913;28;20111;-78
2021/12/26 08:09:50;;;;;;;14.55;8.10;;;2.10;99.90;;;;;;5084314;28;20366;-78
2021/12/26 08:12:15;;;;;;;15.88;8.27;;;2.10;99.90;;;;;;5087712;28;20032;-78
2021/12/26 08:14:41;;;;;;;15.60;8.15;;;2.20;99.90;;;;;;5081841;28;20055;-78
2021/12/26 08:17:07;;;;;;;16.23;8.50;;;2.30;99.90;;;;;;5082934;28;20039;-78
2021/12/26 08:19:32;;;;;;;14.88;8.18;;;2.30;99.90;;;;;;5078846;28;20162;-79
2021/12/26 08:21:58;;;;;;;19.73;10.05;;;2.30;99.90;;;;;;5086979;28;20032;-79
2021/12/26 08:24:26;;;;;;;18.98;9.60;;;2.30;99.90;;;;;;5084274;28;20053;-78
2021/12/26 08:26:52;;;;;;;14.95;8.63;;;2.40;99.90;;;;;;5082565;28;20492;-78
2021/12/26 08:29:23;;;;;;;15.63;8.32;;;2.30;99.90;;;;;;5082529;28;20164;-77
2021/12/26 08:31:53;;;;;;;17.60;8.80;;;2.40;99.90;;;;;;5081995;28;20081;-78
2021/12/26 08:34:21;;;;;;;14.13;8.60;;;2.30;99.90;;;;;;5083285;28;20080;-77
2021/12/26 08:36:59;;;;;;;22.85;10.05;;;2.20;99.90;;;;;;5083804;28;20024;-78
2021/12/26 08:39:33;;;;;;;19.63;10.00;;;2.30;99.90;;;;;;5083670;28;20385;-78
2021/12/26 08:41:59;;;;;;;16.55;10.15;;;2.30;99.90;;;;;;5082334;28;20067;-78
2021/12/26 08:44:25;;;;;;;18.92;10.20;;;2.30;99.90;;;;;;5086343;28;20095;-78
2021/12/26 08:46:50;;;;;;;15.70;9.40;;;2.20;99.90;;;;;;5083967;28;20462;-78
2021/12/26 08:49:17;;;;;;;19.23;10.25;;;2.30;99.90;;;;;;5087532;28;20032;-78
2021/12/26 08:51:44;;;;;;;15.77;9.18;;;2.40;99.90;;;;;;5086978;28;20096;-78
2021/12/26 08:54:10;;;;;;;22.52;9.90;;;2.30;99.90;;;;;;5082491;28;20434;-78
2021/12/26 08:56:36;;;;;;;17.63;9.95;;;2.30;99.90;;;;;;5082708;28;20114;-77
2021/12/26 08:59:02;;;;;;;19.40;9.57;;;2.30;99.90;;;;;;5085125;28;20070;-78
2021/12/26 09:01:28;;;;;;;18.50;10.07;;;2.30;99.90;;;;;;5080185;28;20368;-77
2021/12/26 09:03:54;;;;;;;20.15;11.52;;;2.40;99.90;;;;;;5087378;28;20136;-78
2021/12/26 09:06:19;;;;;;;21.35;10.82;;;2.40;99.90;;;;;;5083119;28;20024;-78
2021/12/26 09:08:45;;;;;;;18.55;11.02;;;2.40;99.90;;;;;;5081565;28;20071;-78
2021/12/26 09:11:11;;;;;;;18.70;10.45;;;2.40;99.90;;;;;;5083991;28;20101;-77
2021/12/26 09:13:37;;;;;;;16.10;10.32;;;2.40;99.90;;;;;;5081932;28;20055;-77
2021/12/26 09:16:03;;;;;;;17.50;10.23;;;2.50;99.90;;;;;;5081166;28;20043;-77
2021/12/26 09:18:29;;;;;;;18.77;10.35;;;2.50;99.90;;;;;;5084870;28;20071;-78
2021/12/26 09:20:54;;;;;;;17.58;10.27;;;2.60;99.90;;;;;;5089003;28;20069;-77
2021/12/26 09:23:20;;;;;;;18.35;10.13;;;2.60;99.90;;;;;;5081828;28;20377;-77
2021/12/26 09:25:46;;;;;;;19.52;10.95;;;2.70;99.90;;;;;;5081608;28;20032;-77
2021/12/26 09:28:11;;;;;;;18.00;10.85;;;2.60;99.90;;;;;;5089611;28;20042;-77
2021/12/26 09:30:38;;;;;;;22.67;11.55;;;2.70;99.90;;;;;;5081926;28;20024;-77
2021/12/26 09:33:03;;;;;;;17.70;10.90;;;2.80;99.90;;;;;;5083685;28;20033;-77
2021/12/26 09:35:31;;;;;;;18.25;10.48;;;2.70;99.90;;;;;;5081760;28;20036;-76
2021/12/26 09:37:57;;;;;;;20.98;12.18;;;2.70;99.90;;;;;;5081523;28;20521;-77
2021/12/26 09:40:23;;;;;;;21.95;11.93;;;2.70;99.90;;;;;;5084827;28;20020;-77
2021/12/26 09:42:49;;;;;;;23.70;12.80;;;2.80;99.90;;;;;;5077141;28;20016;-78
2021/12/26 09:45:16;;;;;;;20.20;11.43;;;2.90;99.90;;;;;;5080425;28;20373;-77
2021/12/26 09:47:43;;;;;;;19.45;11.65;;;2.90;99.90;;;;;;5081972;28;20021;-77
2021/12/26 09:50:13;;;;;;;22.73;12.02;;;3.00;99.90;;;;;;5082275;28;20483;-76
2021/12/26 09:52:43;;;;;;;22.20;12.15;;;3.10;99.90;;;;;;5084604;28;20020;-77
2021/12/26 09:55:10;;;;;;;39.13;12.80;;;3.10;99.90;;;;;;5084233;28;20047;-76
2021/12/26 09:57:36;;;;;;;24.75;13.23;;;3.20;99.90;;;;;;5082411;28;20613;-76
2021/12/26 10:00:21;;;;;;;21.73;11.90;;;3.10;99.90;;;;;;5081555;28;20028;-76
2021/12/26 10:02:47;;;;;;;27.52;14.52;;;3.20;99.90;;;;;;5079244;28;20028;-76
2021/12/26 10:05:12;;;;;;;20.55;12.43;;;3.20;99.90;;;;;;5079026;28;20519;-76
2021/12/26 10:07:38;;;;;;;23.02;12.75;;;3.10;99.90;;;;;;5079293;28;20027;-76
2021/12/26 10:10:07;;;;;;;23.52;14.32;;;3.20;99.90;;;;;;5082600;28;20020;-78
2021/12/26 10:12:40;;;;;;;22.65;13.95;;;3.40;99.90;;;;;;5091140;28;20025;-77
2021/12/26 10:15:06;;;;;;;22.45;13.77;;;3.30;99.90;;;;;;5083714;28;20428;-76
2021/12/26 10:17:31;;;;;;;22.90;13.25;;;3.30;99.90;;;;;;5087494;28;20020;-76
2021/12/26 10:20:11;;;;;;;22.05;13.73;;;3.30;99.90;;;;;;5086094;28;20563;-78
2021/12/26 10:22:37;;;;;;;23.45;13.63;;;3.20;99.90;;;;;;5083257;28;20032;-81
2021/12/26 10:25:11;;;;;;;23.33;12.95;;;3.30;99.90;;;;;;5087702;28;20027;-76
2021/12/26 10:27:37;;;;;;;28.30;14.55;;;3.30;99.90;;;;;;5082362;28;20035;-76
2021/12/26 10:30:05;;;;;;;23.15;14.25;;;3.30;99.90;;;;;;5082713;28;20096;-77
2021/12/26 10:32:37;;;;;;;25.33;14.23;;;3.40;99.90;;;;;;5078612;28;20016;-76
2021/12/26 10:35:12;;;;;;;23.63;14.15;;;3.40;99.90;;;;;;5081556;28;20099;-77
2021/12/26 10:37:41;;;;;;;21.08;13.15;;;3.50;99.90;;;;;;5083059;28;20147;-76
2021/12/26 10:40:14;;;;;;;26.52;15.52;;;3.40;99.90;;;;;;5079255;28;20024;-77
2021/12/26 10:42:46;;;;;;;22.33;13.63;;;3.40;99.90;;;;;;5078096;28;20036;-77
2021/12/26 10:45:14;;;;;;;23.25;13.45;;;3.40;99.90;;;;;;5078998;28;20092;-76
2021/12/26 10:47:44;;;;;;;21.75;13.48;;;3.60;99.90;;;;;;5088132;28;20381;-76
2021/12/26 10:50:13;;;;;;;24.10;14.32;;;3.60;99.90;;;;;;5082959;28;20032;-77
2021/12/26 10:52:53;;;;;;;22.02;13.63;;;3.70;99.90;;;;;;5079204;28;20039;-78
2021/12/26 10:55:26;;;;;;;25.00;14.98;;;3.70;99.90;;;;;;5082326;28;20032;-78
2021/12/26 10:57:53;;;;;;;31.88;13.60;;;3.80;99.90;;;;;;5083541;28;20024;-77
2021/12/26 11:00:33;;;;;;;24.88;14.52;;;3.80;99.90;;;;;;5085438;28;20039;-77
2021/12/26 11:03:27;;;;;;;28.20;14.68;;;3.80;99.90;;;;;;5087124;28;20267;-77
2021/12/26 11:05:55;;;;;;;26.75;15.30;;;3.80;99.90;;;;;;5076498;28;20036;-76
2021/12/26 11:08:33;;;;;;;28.48;15.50;;;3.80;99.90;;;;;;5078569;28;20025;-76
2021/12/26 11:11:09;;;;;;;26.38;15.32;;;3.80;99.90;;;;;;5078796;28;20383;-76
2021/12/26 11:13:36;;;;;;;30.00;16.00;;;3.90;99.90;;;;;;5076907;28;20020;-76
2021/12/26 11:16:06;;;;;;;28.38;17.00;;;3.70;99.90;;;;;;5089372;28;20119;-77
2021/12/26 11:18:33;;;;;;;29.02;16.63;;;3.80;99.90;;;;;;5075155;28;20571;-75
2021/12/26 11:21:06;;;;;;;29.08;17.63;;;3.80;99.90;;;;;;5082903;28;20024;-76
2021/12/26 11:23:35;;;;;;;34.45;16.95;;;3.90;99.90;;;;;;5073544;28;20037;-76
2021/12/26 11:26:12;;;;;;;27.88;17.15;;;3.90;99.90;;;;;;5080556;28;20032;-76
2021/12/26 11:28:49;;;;;;;29.08;16.30;;;3.90;99.90;;;;;;5089139;28;20535;-76
2021/12/26 11:31:18;;;;;;;32.35;18.13;;;3.90;99.90;;;;;;5076229;28;20021;-76
2021/12/26 11:33:45;;;;;;;29.20;17.77;;;4.00;99.90;;;;;;5079350;28;20249;-76
2021/12/26 11:36:11;;;;;;;34.90;18.38;;;4.00;99.90;;;;;;5081220;28;20481;-76
2021/12/26 11:38:38;;;;;;;32.40;17.17;;;4.10;99.90;;;;;;5078602;28;20024;-76
2021/12/26 11:41:07;;;;;;;29.85;18.05;;;4.10;99.90;;;;;;5084597;28;20081;-79
2021/12/26 11:43:47;;;;;;;33.22;16.77;;;4.20;99.90;;;;;;5076703;28;20025;-81
2021/12/26 11:46:32;;;;;;;33.90;18.77;;;4.20;99.90;;;;;;5080185;28;20096;-78
2021/12/26 11:49:06;;;;;;;34.30;17.38;;;4.20;99.90;;;;;;5074811;28;20032;-79
2021/12/26 11:51:46;;;;;;;31.20;17.60;;;4.20;99.90;;;;;;5077413;28;20056;-78
2021/12/26 11:54:41;;;;;;;30.77;18.30;;;4.30;99.90;;;;;;5080855;28;20028;-77
2021/12/26 11:57:16;;;;;;;34.10;18.95;;;4.30;99.90;;;;;;5083767;28;21094;-78
2021/12/26 12:00:06;;;;;;;33.38;18.30;;;4.30;99.90;;;;;;5080654;28;20358;-78
2021/12/26 12:02:47;;;;;;;33.30;18.75;;;4.30;99.90;;;;;;5083168;28;20142;-80
2021/12/26 12:05:21;;;;;;;32.60;18.38;;;4.40;99.90;;;;;;5088395;28;20028;-81
2021/12/26 12:07:51;;;;;;;33.30;19.73;;;4.50;99.90;;;;;;5086803;28;20020;-80
2021/12/26 12:10:43;;;;;;;32.95;18.98;;;4.60;99.90;;;;;;5086406;28;20025;-79
2021/12/26 12:13:11;;;;;;;34.93;19.27;;;4.50;99.90;;;;;;5083346;28;20024;-78
2021/12/26 12:15:55;;;;;;;35.38;19.45;;;4.60;99.90;;;;;;5083539;28;20450;-77
2021/12/26 12:18:24;;;;;;;33.78;18.92;;;4.70;99.90;;;;;;5084388;28;20020;-78
2021/12/26 12:21:13;;;;;;;33.35;18.50;;;4.70;99.90;;;;;;5083796;28;20032;-78
2021/12/26 12:24:18;;;;;;;34.65;19.42;;;4.70;99.90;;;;;;5082446;28;20028;-79
2021/12/26 12:26:58;;;;;;;33.63;18.73;;;4.80;99.90;;;;;;5083703;28;20102;-79
2021/12/26 12:29:24;;;;;;;40.63;21.40;;;4.80;99.90;;;;;;5084289;28;20020;-79
2021/12/26 12:32:08;;;;;;;37.30;21.58;;;4.70;99.90;;;;;;5084844;28;20027;-79
2021/12/26 12:34:58;;;;;;;36.88;21.10;;;4.80;99.90;;;;;;5082126;28;20465;-79
2021/12/26 12:37:40;;;;;;;37.95;23.13;;;4.60;99.90;;;;;;5085044;28;20024;-79
2021/12/26 12:40:25;;;;;;;36.53;22.48;;;4.70;99.90;;;;;;5085663;28;20508;-78
2021/12/26 12:43:15;;;;;;;38.80;23.27;;;4.70;99.90;;;;;;5081415;28;20017;-79
2021/12/26 12:45:56;;;;;;;33.10;19.90;;;4.80;99.90;;;;;;5079495;28;20020;-79
2021/12/26 12:48:26;;;;;;;40.60;22.57;;;4.80;99.90;;;;;;5069403;28;20032;-78
2021/12/26 12:50:55;;;;;;;38.65;21.80;;;4.90;99.90;;;;;;5083719;28;20285;-78
2021/12/26 12:53:44;;;;;;;37.72;20.10;;;4.90;99.90;;;;;;5085189;28;20039;-79